Time;durP1;ratioP1;P1;durP2;ratioP2;P2;SDS_P1;SDS_P2;PMS_P1;PMS_P2;Temp;Humidity;BMP_temperature;BMP_pressure;BME280_temperature;BME280_humidity;BME280_pressure;Samples;Min_cycle;Max_cycle;Signal;HPM_P1;HPM_P2
2023/08/01 00:00:28;;;;;;;0.50;0.50;;;;;;;;;;5106292;27;42045;-65
2023/08/01 00:02:57;;;;;;;0.52;0.40;;;;;;;;;;5107607;27;40969;-65
2023/08/01 00:05:25;;;;;;;0.70;0.43;;;;;;;;;;5106608;27;43208;-65
2023/08/01 00:07:53;;;;;;;0.68;0.52;;;;;;;;;;5106165;27;40964;-65
2023/08/01 00:10:23;;;;;;;0.98;0.60;;;;;;;;;;5107438;27;41293;-65
2023/08/01 00:12:51;;;;;;;0.65;0.38;;;;;;;;;;5107587;27;40867;-65
2023/08/01 00:15:19;;;;;;;0.85;0.40;;;;;;;;;;5106703;27;42724;-65
2023/08/01 00:17:47;;;;;;;0.80;0.30;;;;;;;;;;5107112;27;41962;-65
2023/08/01 00:20:15;;;;;;;0.55;0.40;;;;;;;;;;5107160;27;42279;-65
2023/08/01 00:22:43;;;;;;;0.60;0.60;;;;;;;;;;5106128;27;41135;-65
2023/08/01 00:25:11;;;;;;;0.57;0.40;;;;;;;;;;5107005;27;41722;-65
2023/08/01 00:27:40;;;;;;;0.90;0.43;;;;;;;;;;5106204;27;42158;-65
2023/08/01 00:30:11;;;;;;;0.52;0.38;;;;;;;;;;5106465;28;41957;-65
2023/08/01 00:32:39;;;;;;;0.38;0.30;;;;;;;;;;5106176;28;41816;-65
2023/08/01 00:35:08;;;;;;;1.17;0.30;;;;;;;;;;5106562;27;42218;-65
2023/08/01 00:37:36;;;;;;;0.68;0.50;;;;;;;;;;5106775;27;41196;-65
2023/08/01 00:40:04;;;;;;;1.10;0.40;;;;;;;;;;5107339;28;43359;-65
2023/08/01 00:42:32;;;;;;;0.43;0.43;;;;;;;;;;5105886;28;41124;-65
2023/08/01 00:45:02;;;;;;;1.40;0.50;;;;;;;;;;5106165;28;41724;-65
2023/08/01 00:47:30;;;;;;;0.40;0.40;;;;;;;;;;5106366;28;41912;-65
2023/08/01 00:49:58;;;;;;;1.25;0.40;;;;;;;;;;5106277;28;41430;-65
2023/08/01 00:52:26;;;;;;;1.05;0.40;;;;;;;;;;5105153;28;39964;-65
2023/08/01 00:54:54;;;;;;;0.77;0.40;;;;;;;;;;5107530;27;44006;-65
2023/08/01 00:57:21;;;;;;;0.45;0.40;;;;;;;;;;5106092;28;42304;-65
2023/08/01 00:59:50;;;;;;;0.50;0.40;;;;;;;;;;5106750;28;41885;-65
2023/08/01 01:02:19;;;;;;;0.90;0.38;;;;;;;;;;5106416;28;41500;-65
2023/08/01 01:04:47;;;;;;;0.50;0.40;;;;;;;;;;5103566;28;40256;-65
2023/08/01 01:07:16;;;;;;;0.40;0.40;;;;;;;;;;5106643;28;42332;-65
2023/08/01 01:09:44;;;;;;;0.55;0.40;;;;;;;;;;5106696;28;42387;-65
2023/08/01 01:12:11;;;;;;;0.40;0.40;;;;;;;;;;5106505;28;42846;-65
2023/08/01 01:14:39;;;;;;;1.02;0.30;;;;;;;;;;5104748;28;40621;-65
2023/08/01 01:17:07;;;;;;;0.50;0.30;;;;;;;;;;5107014;27;41161;-65
2023/08/01 01:19:37;;;;;;;0.43;0.38;;;;;;;;;;5105411;28;42262;-65
2023/08/01 01:22:07;;;;;;;0.35;0.30;;;;;;;;;;5114089;27;41380;-65
2023/08/01 01:24:35;;;;;;;1.25;0.50;;;;;;;;;;5085011;28;43647;-64
2023/08/01 01:27:04;;;;;;;0.40;0.30;;;;;;;;;;5097708;28;42074;-65
2023/08/01 01:29:32;;;;;;;0.30;0.30;;;;;;;;;;5105322;28;40734;-65
2023/08/01 01:32:00;;;;;;;1.15;0.50;;;;;;;;;;5103867;28;40826;-65
2023/08/01 01:34:28;;;;;;;0.82;0.30;;;;;;;;;;5104605;28;41412;-64
2023/08/01 01:36:56;;;;;;;0.40;0.30;;;;;;;;;;5105955;28;41923;-65
2023/08/01 01:39:26;;;;;;;0.88;0.30;;;;;;;;;;5105902;28;42694;-65
2023/08/01 01:41:54;;;;;;;0.43;0.30;;;;;;;;;;5104882;28;40823;-65
2023/08/01 01:44:22;;;;;;;0.38;0.30;;;;;;;;;;5106707;28;42309;-65
2023/08/01 01:46:50;;;;;;;0.52;0.40;;;;;;;;;;5105453;28;42264;-65
2023/08/01 01:49:18;;;;;;;0.43;0.30;;;;;;;;;;5106144;28;41472;-65
2023/08/01 01:51:46;;;;;;;0.40;0.40;;;;;;;;;;5104790;28;41645;-65
2023/08/01 01:54:14;;;;;;;0.30;0.20;;;;;;;;;;5103890;28;40836;-65
2023/08/01 01:56:43;;;;;;;0.38;0.30;;;;;;;;;;5108329;27;41458;-65
2023/08/01 01:59:11;;;;;;;0.35;0.30;;;;;;;;;;5110081;28;40984;-65
2023/08/01 02:01:39;;;;;;;0.40;0.40;;;;;;;;;;5106895;28;41956;-65
2023/08/01 02:04:07;;;;;;;0.45;0.30;;;;;;;;;;5107882;28;40280;-66
2023/08/01 02:06:35;;;;;;;0.40;0.22;;;;;;;;;;5103200;28;42830;-65
2023/08/01 02:09:04;;;;;;;0.35;0.30;;;;;;;;;;5096963;28;40982;-65
2023/08/01 02:11:32;;;;;;;0.57;0.30;;;;;;;;;;5088688;28;42237;-65
2023/08/01 02:14:02;;;;;;;0.50;0.40;;;;;;;;;;5087045;28;41049;-65
2023/08/01 02:16:30;;;;;;;0.63;0.30;;;;;;;;;;5086799;28;40769;-65
2023/08/01 02:18:58;;;;;;;0.52;0.40;;;;;;;;;;5088682;28;41644;-65
2023/08/01 02:21:27;;;;;;;0.32;0.32;;;;;;;;;;5086610;28;40801;-65
2023/08/01 02:23:55;;;;;;;0.20;0.20;;;;;;;;;;5089116;28;41547;-65
2023/08/01 02:26:24;;;;;;;0.50;0.50;;;;;;;;;;5095897;28;41002;-65
2023/08/01 02:28:52;;;;;;;0.40;0.30;;;;;;;;;;5107970;27;43605;-65
2023/08/01 02:31:21;;;;;;;0.40;0.40;;;;;;;;;;5106787;28;41058;-65
2023/08/01 02:33:49;;;;;;;0.50;0.22;;;;;;;;;;5109115;28;43359;-65
2023/08/01 02:36:17;;;;;;;0.50;0.40;;;;;;;;;;5106543;28;40878;-65
2023/08/01 02:38:46;;;;;;;0.50;0.40;;;;;;;;;;5108854;28;41840;-66
2023/08/01 02:41:14;;;;;;;0.20;0.20;;;;;;;;;;5107292;28;42565;-65
2023/08/01 02:43:42;;;;;;;0.30;0.30;;;;;;;;;;5108100;28;41533;-65
2023/08/01 02:46:10;;;;;;;0.90;0.30;;;;;;;;;;5108934;28;41991;-65
2023/08/01 02:48:39;;;;;;;0.55;0.30;;;;;;;;;;5108943;28;42127;-65
2023/08/01 02:51:09;;;;;;;0.40;0.30;;;;;;;;;;5108266;28;41917;-65
2023/08/01 02:53:40;;;;;;;0.30;0.22;;;;;;;;;;5106728;28;40428;-66
2023/08/01 02:56:10;;;;;;;0.35;0.30;;;;;;;;;;5106368;28;40751;-65
2023/08/01 02:58:38;;;;;;;0.20;0.20;;;;;;;;;;5108272;27;41535;-65
2023/08/01 03:01:09;;;;;;;0.45;0.32;;;;;;;;;;5104434;28;42109;-65
2023/08/01 03:03:39;;;;;;;0.40;0.40;;;;;;;;;;5096126;28;41009;-65
2023/08/01 03:06:07;;;;;;;1.58;0.50;;;;;;;;;;5088037;28;42708;-65
2023/08/01 03:08:35;;;;;;;0.38;0.30;;;;;;;;;;5088114;28;43061;-65
2023/08/01 03:11:03;;;;;;;0.40;0.40;;;;;;;;;;5106206;28;39588;-65
2023/08/01 03:13:31;;;;;;;0.43;0.30;;;;;;;;;;5108235;28;42390;-66
2023/08/01 03:15:59;;;;;;;0.43;0.38;;;;;;;;;;5108380;28;40754;-65
2023/08/01 03:18:27;;;;;;;0.38;0.32;;;;;;;;;;5107216;28;41552;-65
2023/08/01 03:20:57;;;;;;;0.40;0.40;;;;;;;;;;5108503;28;41580;-65
2023/08/01 03:23:24;;;;;;;1.45;0.32;;;;;;;;;;5108152;28;41308;-66
2023/08/01 03:25:53;;;;;;;0.40;0.30;;;;;;;;;;5101149;27;41299;-65
2023/08/01 03:28:23;;;;;;;0.50;0.40;;;;;;;;;;5087357;28;41404;-65
2023/08/01 03:30:53;;;;;;;0.63;0.40;;;;;;;;;;5087705;28;41692;-65
2023/08/01 03:33:21;;;;;;;0.55;0.50;;;;;;;;;;5087268;28;41762;-65
2023/08/01 03:35:49;;;;;;;0.50;0.30;;;;;;;;;;5085886;28;40040;-65
2023/08/01 03:38:18;;;;;;;0.50;0.30;;;;;;;;;;5086661;28;41756;-65
2023/08/01 03:40:47;;;;;;;0.30;0.30;;;;;;;;;;5106249;28;20266;-65
2023/08/01 03:43:15;;;;;;;0.93;0.50;;;;;;;;;;5123549;27;40969;-66
2023/08/01 03:45:43;;;;;;;0.60;0.50;;;;;;;;;;5106979;28;42276;-66
2023/08/01 03:48:11;;;;;;;0.68;0.40;;;;;;;;;;5106260;28;40659;-66
2023/08/01 03:50:39;;;;;;;0.45;0.38;;;;;;;;;;5105648;28;41347;-65
2023/08/01 03:53:08;;;;;;;0.50;0.40;;;;;;;;;;5107138;28;42833;-65
2023/08/01 03:55:37;;;;;;;0.40;0.38;;;;;;;;;;5107597;28;42215;-65
2023/08/01 03:58:05;;;;;;;0.40;0.30;;;;;;;;;;5107581;28;42275;-65
2023/08/01 04:00:33;;;;;;;0.55;0.38;;;;;;;;;;5106781;27;42287;-65
2023/08/01 04:03:02;;;;;;;0.45;0.40;;;;;;;;;;5107127;27;40896;-65
2023/08/01 04:05:30;;;;;;;0.73;0.50;;;;;;;;;;5107000;28;42660;-66
2023/08/01 04:07:58;;;;;;;0.70;0.50;;;;;;;;;;5106618;28;42132;-66
2023/08/01 04:10:26;;;;;;;1.00;0.50;;;;;;;;;;5106861;27;41287;-65
2023/08/01 04:12:55;;;;;;;0.95;0.40;;;;;;;;;;5100918;27;41248;-65
2023/08/01 04:15:23;;;;;;;1.05;0.57;;;;;;;;;;5091826;27;41723;-65
2023/08/01 04:17:51;;;;;;;0.75;0.40;;;;;;;;;;5087249;28;42683;-66
2023/08/01 04:20:19;;;;;;;0.43;0.40;;;;;;;;;;5086167;28;42738;-65
2023/08/01 04:22:47;;;;;;;0.40;0.30;;;;;;;;;;5086883;28;42154;-65
2023/08/01 04:25:15;;;;;;;0.65;0.47;;;;;;;;;;5087273;28;42210;-65
2023/08/01 04:27:43;;;;;;;0.65;0.38;;;;;;;;;;5089223;28;42466;-65
2023/08/01 04:30:13;;;;;;;0.40;0.40;;;;;;;;;;5095649;27;40962;-65
2023/08/01 04:32:41;;;;;;;0.60;0.40;;;;;;;;;;5085948;28;42738;-65
2023/08/01 04:35:09;;;;;;;0.70;0.45;;;;;;;;;;5086145;28;43176;-65
2023/08/01 04:37:37;;;;;;;0.30;0.30;;;;;;;;;;5086714;28;41181;-65
2023/08/01 04:40:05;;;;;;;0.68;0.40;;;;;;;;;;5099724;28;43065;-66
2023/08/01 04:42:33;;;;;;;0.38;0.38;;;;;;;;;;5104913;28;41956;-65
2023/08/01 04:45:01;;;;;;;0.30;0.30;;;;;;;;;;5106367;27;42369;-65
2023/08/01 04:47:31;;;;;;;0.73;0.38;;;;;;;;;;5106559;27;43456;-65
2023/08/01 04:49:59;;;;;;;0.70;0.30;;;;;;;;;;5106715;27;40810;-65
2023/08/01 04:52:29;;;;;;;0.60;0.30;;;;;;;;;;5107267;27;42227;-66
2023/08/01 04:54:57;;;;;;;1.45;0.40;;;;;;;;;;5107136;27;41427;-65
2023/08/01 04:57:25;;;;;;;0.50;0.30;;;;;;;;;;5106315;28;41341;-65
2023/08/01 04:59:55;;;;;;;0.30;0.30;;;;;;;;;;5107785;28;41660;-65
2023/08/01 05:02:23;;;;;;;0.68;0.30;;;;;;;;;;5106609;27;40634;-65
2023/08/01 05:04:52;;;;;;;1.13;0.60;;;;;;;;;;5107035;28;41728;-65
2023/08/01 05:07:20;;;;;;;0.60;0.30;;;;;;;;;;5106638;27;42307;-65
2023/08/01 05:09:48;;;;;;;0.50;0.30;;;;;;;;;;5105080;28;40830;-65
2023/08/01 05:12:16;;;;;;;0.30;0.30;;;;;;;;;;5106351;27;41290;-65
2023/08/01 05:14:44;;;;;;;0.30;0.30;;;;;;;;;;5107023;27;42855;-65
2023/08/01 05:17:12;;;;;;;0.35;0.30;;;;;;;;;;5106139;27;42876;-65
2023/08/01 05:19:40;;;;;;;0.30;0.30;;;;;;;;;;5106451;27;42114;-65
2023/08/01 05:22:09;;;;;;;0.45;0.22;;;;;;;;;;5107581;27;42180;-65
2023/08/01 05:24:37;;;;;;;0.50;0.43;;;;;;;;;;5105390;27;42672;-66
2023/08/01 05:27:06;;;;;;;1.00;0.50;;;;;;;;;;5103696;27;43164;-65
2023/08/01 05:29:34;;;;;;;0.40;0.40;;;;;;;;;;5093554;28;41128;-65
2023/08/01 05:32:02;;;;;;;0.60;0.35;;;;;;;;;;5101179;27;42630;-65
2023/08/01 05:34:30;;;;;;;0.40;0.30;;;;;;;;;;5089868;27;42427;-65
2023/08/01 05:36:58;;;;;;;0.75;0.50;;;;;;;;;;5090066;28;41224;-65
2023/08/01 05:39:27;;;;;;;0.95;0.57;;;;;;;;;;5094998;28;41606;-65
2023/08/01 05:41:55;;;;;;;0.30;0.28;;;;;;;;;;5110053;27;42354;-65
2023/08/01 05:44:23;;;;;;;0.43;0.32;;;;;;;;;;5110344;27;41445;-65
2023/08/01 05:46:51;;;;;;;0.70;0.40;;;;;;;;;;5108789;27;40599;-65
2023/08/01 05:49:19;;;;;;;0.45;0.38;;;;;;;;;;5109854;27;41372;-65
2023/08/01 05:51:47;;;;;;;0.30;0.22;;;;;;;;;;5108968;27;41688;-65
2023/08/01 05:54:14;;;;;;;0.40;0.30;;;;;;;;;;5109429;27;41987;-65
2023/08/01 05:56:44;;;;;;;0.63;0.40;;;;;;;;;;5109455;27;41903;-65
2023/08/01 05:59:12;;;;;;;0.30;0.30;;;;;;;;;;5109025;27;42251;-65
2023/08/01 06:01:40;;;;;;;0.47;0.40;;;;;;;;;;5109458;27;41560;-65
2023/08/01 06:04:08;;;;;;;0.32;0.32;;;;;;;;;;5108489;27;42340;-69
2023/08/01 06:06:36;;;;;;;1.05;0.40;;;;;;;;;;5106823;28;41856;-65
2023/08/01 06:09:04;;;;;;;2.05;0.60;;;;;;;;;;5109058;27;41899;-66
2023/08/01 06:11:33;;;;;;;0.68;0.30;;;;;;;;;;5109039;27;42461;-66
2023/08/01 06:14:02;;;;;;;2.78;0.60;;;;;;;;;;5093647;27;42387;-67
2023/08/01 06:16:30;;;;;;;1.55;0.60;;;;;;;;;;5091319;28;41505;-66
2023/08/01 06:18:58;;;;;;;1.38;0.57;;;;;;;;;;5104765;27;41262;-66
2023/08/01 06:21:26;;;;;;;2.45;0.70;;;;;;;;;;5094543;28;42197;-66
2023/08/01 06:23:54;;;;;;;1.58;0.90;;;;;;;;;;5104597;27;41050;-65
2023/08/01 06:26:22;;;;;;;1.63;0.82;;;;;;;;;;5103398;28;41094;-66
2023/08/01 06:28:52;;;;;;;2.45;1.10;;;;;;;;;;5088604;28;41181;-66
2023/08/01 06:31:22;;;;;;;2.65;1.10;;;;;;;;;;5102327;27;41417;-66
2023/08/01 06:33:50;;;;;;;2.47;1.20;;;;;;;;;;5096616;27;43467;-65
2023/08/01 06:36:19;;;;;;;3.88;1.05;;;;;;;;;;5098834;28;41716;-66
2023/08/01 06:38:47;;;;;;;5.45;1.50;;;;;;;;;;5108430;27;41221;-64
2023/08/01 06:41:15;;;;;;;2.70;1.55;;;;;;;;;;5107460;27;43287;-62
2023/08/01 06:43:43;;;;;;;3.08;1.45;;;;;;;;;;5107817;27;41301;-63
2023/08/01 06:46:11;;;;;;;5.50;1.95;;;;;;;;;;5099941;27;41257;-64
2023/08/01 06:48:41;;;;;;;6.90;1.75;;;;;;;;;;5103655;27;42169;-64
2023/08/01 06:51:09;;;;;;;4.00;1.60;;;;;;;;;;5106506;27;41671;-63
2023/08/01 06:53:37;;;;;;;3.97;1.65;;;;;;;;;;5108533;27;43065;-64
2023/08/01 06:56:05;;;;;;;5.20;1.67;;;;;;;;;;5108317;27;41245;-64
2023/08/01 06:58:32;;;;;;;3.55;1.60;;;;;;;;;;5108403;27;41987;-63
2023/08/01 07:01:00;;;;;;;3.33;1.55;;;;;;;;;;5108814;27;43127;-64
2023/08/01 07:03:28;;;;;;;8.32;2.05;;;;;;;;;;5107847;27;41680;-64
2023/08/01 07:05:58;;;;;;;10.13;2.63;;;;;;;;;;5103758;27;41695;-66
2023/08/01 07:08:26;;;;;;;4.70;1.88;;;;;;;;;;5098669;28;43223;-63
2023/08/01 07:10:54;;;;;;;5.10;2.65;;;;;;;;;;5099871;28;41549;-67
2023/08/01 07:13:25;;;;;;;6.55;2.05;;;;;;;;;;5106582;27;42106;-66
2023/08/01 07:15:53;;;;;;;11.93;2.83;;;;;;;;;;5096822;28;40993;-65
2023/08/01 07:18:21;;;;;;;7.72;2.88;;;;;;;;;;5089056;27;42605;-65
2023/08/01 07:20:49;;;;;;;5.97;2.30;;;;;;;;;;5090351;28;42010;-65
2023/08/01 07:23:18;;;;;;;9.43;3.10;;;;;;;;;;5086598;28;41307;-65
2023/08/01 07:25:46;;;;;;;7.05;3.20;;;;;;;;;;5088091;28;41113;-65
2023/08/01 07:28:14;;;;;;;7.15;2.72;;;;;;;;;;5104124;28;43151;-65
2023/08/01 07:30:42;;;;;;;7.25;3.10;;;;;;;;;;5106889;27;41213;-65
2023/08/01 07:33:09;;;;;;;5.38;2.72;;;;;;;;;;5108230;27;41374;-65
2023/08/01 07:35:37;;;;;;;5.57;3.15;;;;;;;;;;5107750;27;41935;-65
2023/08/01 07:38:05;;;;;;;5.93;2.92;;;;;;;;;;5107845;27;41413;-65
2023/08/01 07:40:36;;;;;;;5.72;3.05;;;;;;;;;;5107434;27;41467;-65
2023/08/01 07:43:04;;;;;;;5.53;2.75;;;;;;;;;;5108412;27;41564;-65
2023/08/01 07:45:33;;;;;;;5.75;2.67;;;;;;;;;;5106780;27;42613;-65
2023/08/01 07:48:01;;;;;;;8.65;3.00;;;;;;;;;;5107665;27;42656;-65
2023/08/01 07:50:29;;;;;;;7.72;2.75;;;;;;;;;;5106676;27;41323;-65
2023/08/01 07:52:57;;;;;;;5.63;2.92;;;;;;;;;;5106917;27;41722;-68
2023/08/01 07:55:25;;;;;;;5.22;2.65;;;;;;;;;;5107171;27;42780;-70
2023/08/01 07:57:54;;;;;;;4.80;2.60;;;;;;;;;;5106865;27;41580;-64
2023/08/01 08:00:22;;;;;;;6.47;2.33;;;;;;;;;;5106748;27;41757;-66
2023/08/01 08:02:50;;;;;;;10.40;3.25;;;;;;;;;;5106468;27;41072;-65
2023/08/01 08:05:18;;;;;;;6.50;2.80;;;;;;;;;;5094764;28;41812;-64
2023/08/01 08:07:46;;;;;;;5.50;2.72;;;;;;;;;;5107333;27;42166;-64
2023/08/01 08:10:15;;;;;;;9.43;3.17;;;;;;;;;;5102335;27;42294;-64
2023/08/01 08:12:43;;;;;;;8.30;2.83;;;;;;;;;;5096378;28;42545;-64
2023/08/01 08:15:13;;;;;;;7.05;2.78;;;;;;;;;;5089115;28;42255;-64
2023/08/01 08:17:41;;;;;;;7.60;2.88;;;;;;;;;;5097238;28;41586;-64
2023/08/01 08:20:09;;;;;;;6.10;2.83;;;;;;;;;;5093158;27;43033;-64
2023/08/01 08:22:37;;;;;;;6.35;3.17;;;;;;;;;;5099071;28;41390;-64
2023/08/01 08:25:05;;;;;;;9.00;3.20;;;;;;;;;;5088140;27;41682;-64
2023/08/01 08:27:33;;;;;;;5.00;2.70;;;;;;;;;;5103574;28;41722;-64
2023/08/01 08:30:01;;;;;;;9.90;3.05;;;;;;;;;;5107556;27;41009;-64
2023/08/01 08:32:30;;;;;;;5.93;2.65;;;;;;;;;;5106033;27;41763;-64
2023/08/01 08:34:58;;;;;;;3.75;2.45;;;;;;;;;;5106160;27;42766;-64
2023/08/01 08:37:26;;;;;;;5.97;2.80;;;;;;;;;;5107255;27;42340;-64
2023/08/01 08:39:54;;;;;;;6.45;2.35;;;;;;;;;;5107574;27;42604;-64
2023/08/01 08:42:24;;;;;;;6.43;2.60;;;;;;;;;;5105850;27;42314;-64
2023/08/01 08:44:56;;;;;;;6.70;2.58;;;;;;;;;;5107523;27;41827;-64
2023/08/01 08:47:25;;;;;;;7.10;2.50;;;;;;;;;;5106799;27;42272;-64
2023/08/01 08:49:54;;;;;;;6.90;2.60;;;;;;;;;;5107050;27;41660;-64
2023/08/01 08:52:22;;;;;;;7.68;2.83;;;;;;;;;;5106660;27;42658;-64
2023/08/01 08:54:50;;;;;;;5.55;2.58;;;;;;;;;;5105997;27;41994;-64
2023/08/01 08:57:18;;;;;;;3.60;2.00;;;;;;;;;;5106434;27;41245;-64
2023/08/01 08:59:46;;;;;;;3.65;2.40;;;;;;;;;;5106649;27;42607;-67
2023/08/01 09:02:15;;;;;;;4.07;2.67;;;;;;;;;;5100262;28;42301;-67
2023/08/01 09:04:43;;;;;;;6.00;2.20;;;;;;;;;;5106252;27;42863;-66
2023/08/01 09:07:12;;;;;;;4.63;2.38;;;;;;;;;;5109544;27;42606;-66
2023/08/01 09:09:40;;;;;;;8.30;2.63;;;;;;;;;;5097290;28;40078;-68
2023/08/01 09:12:09;;;;;;;11.32;2.47;;;;;;;;;;5091080;27;42091;-67
2023/08/01 09:14:37;;;;;;;11.10;2.50;;;;;;;;;;5088974;28;43180;-68
2023/08/01 09:17:08;;;;;;;6.05;2.88;;;;;;;;;;5088767;28;41494;-66
2023/08/01 09:19:36;;;;;;;5.03;2.42;;;;;;;;;;5088828;28;41606;-67
2023/08/01 09:22:10;;;;;;;8.23;2.30;;;;;;;;;;5090032;28;42128;-67
2023/08/01 09:24:39;;;;;;;3.42;2.00;;;;;;;;;;5088515;28;41321;-67
2023/08/01 09:27:08;;;;;;;6.80;2.10;;;;;;;;;;5093337;28;42403;-67
2023/08/01 09:29:36;;;;;;;4.47;2.08;;;;;;;;;;5107307;27;41594;-66
2023/08/01 09:32:12;;;;;;;6.53;2.50;;;;;;;;;;5107114;27;41124;-66
2023/08/01 09:34:40;;;;;;;8.27;2.53;;;;;;;;;;5105717;27;42333;-66
2023/08/01 09:37:08;;;;;;;7.25;2.65;;;;;;;;;;5105445;28;41972;-66
2023/08/01 09:39:36;;;;;;;4.32;2.30;;;;;;;;;;5097444;28;42069;-66
2023/08/01 09:42:05;;;;;;;7.32;2.70;;;;;;;;;;5100271;27;41936;-66
2023/08/01 09:44:34;;;;;;;7.35;2.42;;;;;;;;;;5086595;28;42165;-72
2023/08/01 09:47:03;;;;;;;4.22;2.15;;;;;;;;;;5090589;28;42311;-66
2023/08/01 09:49:31;;;;;;;5.82;2.60;;;;;;;;;;5106041;27;41630;-66
2023/08/01 09:51:59;;;;;;;7.38;3.97;;;;;;;;;;5104691;27;42613;-68
2023/08/01 09:54:27;;;;;;;8.10;2.92;;;;;;;;;;5105839;27;42277;-71
2023/08/01 09:56:56;;;;;;;6.85;3.40;;;;;;;;;;5105881;28;40914;-71
2023/08/01 09:59:25;;;;;;;8.25;5.78;;;;;;;;;;5106606;27;42149;-70
2023/08/01 10:01:53;;;;;;;6.40;4.45;;;;;;;;;;5107239;27;41338;-71
2023/08/01 10:04:22;;;;;;;7.10;5.35;;;;;;;;;;5106404;27;42084;-69
2023/08/01 10:06:50;;;;;;;6.18;4.60;;;;;;;;;;5106574;27;40159;-65
2023/08/01 10:09:18;;;;;;;7.95;5.85;;;;;;;;;;5106828;27;40937;-65
2023/08/01 10:11:46;;;;;;;11.20;9.05;;;;;;;;;;5107174;27;41634;-66
2023/08/01 10:14:14;;;;;;;13.43;6.88;;;;;;;;;;5106408;27;41792;-66
2023/08/01 10:16:43;;;;;;;7.60;6.82;;;;;;;;;;5106592;27;41824;-66
2023/08/01 10:19:13;;;;;;;9.30;6.65;;;;;;;;;;5106413;28;41595;-66
2023/08/01 10:21:41;;;;;;;9.15;6.72;;;;;;;;;;5106939;27;42282;-65
2023/08/01 10:24:08;;;;;;;7.10;6.40;;;;;;;;;;5106900;27;41322;-66
2023/08/01 10:26:36;;;;;;;6.60;5.60;;;;;;;;;;5105890;27;42304;-66
2023/08/01 10:29:04;;;;;;;5.72;5.10;;;;;;;;;;5106940;28;34167;-66
2023/08/01 10:31:32;;;;;;;8.65;5.55;;;;;;;;;;5087434;27;41630;-68
2023/08/01 10:34:09;;;;;;;5.90;5.20;;;;;;;;;;5100887;27;42616;-68
2023/08/01 10:36:40;;;;;;;6.65;4.10;;;;;;;;;;5105049;27;40925;-68
2023/08/01 10:39:08;;;;;;;6.50;4.30;;;;;;;;;;5102291;27;41328;-68
2023/08/01 10:41:36;;;;;;;5.82;3.90;;;;;;;;;;5105854;27;42780;-68
2023/08/01 10:44:08;;;;;;;9.45;3.75;;;;;;;;;;5104087;27;41451;-68
2023/08/01 10:46:48;;;;;;;6.43;3.85;;;;;;;;;;5104104;28;42367;-68
2023/08/01 10:49:18;;;;;;;7.10;3.05;;;;;;;;;;5095608;28;42093;-68
2023/08/01 10:51:46;;;;;;;6.28;2.90;;;;;;;;;;5104762;28;41834;-68
2023/08/01 10:54:21;;;;;;;10.40;2.70;;;;;;;;;;5103126;27;41745;-66
2023/08/01 10:56:49;;;;;;;8.88;3.00;;;;;;;;;;5096943;27;41843;-64
2023/08/01 10:59:17;;;;;;;9.27;2.80;;;;;;;;;;5092800;28;42254;-66
2023/08/01 11:01:46;;;;;;;12.52;2.85;;;;;;;;;;5087132;28;42819;-66
2023/08/01 11:04:14;;;;;;;7.57;2.75;;;;;;;;;;5087666;28;41172;-66
2023/08/01 11:06:50;;;;;;;5.80;2.50;;;;;;;;;;5087863;28;41051;-64
2023/08/01 11:09:18;;;;;;;8.43;3.05;;;;;;;;;;5087254;27;41709;-67
2023/08/01 11:11:47;;;;;;;6.00;2.25;;;;;;;;;;5088822;28;41743;-67
2023/08/01 11:14:15;;;;;;;9.25;2.30;;;;;;;;;;5087175;28;41941;-66
2023/08/01 11:16:43;;;;;;;5.07;2.30;;;;;;;;;;5086618;28;41073;-66
2023/08/01 11:19:21;;;;;;;6.45;1.95;;;;;;;;;;5106740;27;42262;-65
2023/08/01 11:21:51;;;;;;;5.07;2.20;;;;;;;;;;5108218;27;43290;-66
2023/08/01 11:24:20;;;;;;;5.60;2.15;;;;;;;;;;5106350;27;40664;-67
2023/08/01 11:26:48;;;;;;;7.35;2.42;;;;;;;;;;5108684;27;41360;-66
2023/08/01 11:29:17;;;;;;;4.40;2.17;;;;;;;;;;5105640;27;41492;-64
2023/08/01 11:31:53;;;;;;;2.70;2.17;;;;;;;;;;5107897;27;42326;-65
2023/08/01 11:34:21;;;;;;;6.10;2.20;;;;;;;;;;5108061;27;42046;-66
2023/08/01 11:36:51;;;;;;;5.35;2.20;;;;;;;;;;5093161;28;41830;-66
2023/08/01 11:39:19;;;;;;;4.15;2.10;;;;;;;;;;5087646;28;41631;-67
2023/08/01 11:41:47;;;;;;;3.85;1.95;;;;;;;;;;5087543;28;41395;-66
2023/08/01 11:44:15;;;;;;;5.45;2.13;;;;;;;;;;5086814;28;41847;-67
2023/08/01 11:46:44;;;;;;;5.35;2.08;;;;;;;;;;5087487;28;42160;-67
2023/08/01 11:49:17;;;;;;;8.90;2.38;;;;;;;;;;5107160;27;42677;-67
2023/08/01 11:51:45;;;;;;;6.78;2.30;;;;;;;;;;5106053;27;40749;-68
2023/08/01 11:54:15;;;;;;;9.02;2.13;;;;;;;;;;5104552;27;42480;-67
2023/08/01 11:56:43;;;;;;;7.53;1.60;;;;;;;;;;5106768;27;43236;-67
2023/08/01 11:59:12;;;;;;;7.05;2.15;;;;;;;;;;5106301;27;41600;-67
2023/08/01 12:01:40;;;;;;;6.03;1.80;;;;;;;;;;5106370;27;42465;-67
2023/08/01 12:04:08;;;;;;;4.18;1.70;;;;;;;;;;5106544;27;41995;-67
2023/08/01 12:06:38;;;;;;;4.80;1.50;;;;;;;;;;5105647;27;42714;-67
2023/08/01 12:09:09;;;;;;;7.10;2.00;;;;;;;;;;5106988;27;42315;-67
2023/08/01 12:11:39;;;;;;;3.28;1.90;;;;;;;;;;5105533;27;40431;-67
2023/08/01 12:14:09;;;;;;;2.78;1.52;;;;;;;;;;5106033;27;41331;-67
2023/08/01 12:16:37;;;;;;;4.43;1.88;;;;;;;;;;5106070;27;43149;-67
2023/08/01 12:19:05;;;;;;;5.18;1.80;;;;;;;;;;5105713;27;42901;-67
2023/08/01 12:21:34;;;;;;;11.32;2.13;;;;;;;;;;5106498;27;41968;-67
2023/08/01 12:24:02;;;;;;;3.00;1.65;;;;;;;;;;5106600;27;41253;-67
2023/08/01 12:26:29;;;;;;;3.70;1.52;;;;;;;;;;5105272;27;41429;-67
2023/08/01 12:28:59;;;;;;;2.45;1.58;;;;;;;;;;5106930;27;42644;-67
2023/08/01 12:31:27;;;;;;;3.10;1.60;;;;;;;;;;5105439;27;42291;-67
2023/08/01 12:33:55;;;;;;;3.50;1.70;;;;;;;;;;5105782;28;42436;-67
2023/08/01 12:36:23;;;;;;;4.97;1.45;;;;;;;;;;5105753;27;42626;-67
2023/08/01 12:38:51;;;;;;;4.82;1.60;;;;;;;;;;5106727;27;41639;-67
2023/08/01 12:41:19;;;;;;;3.13;1.50;;;;;;;;;;5105045;27;42080;-67
2023/08/01 12:43:47;;;;;;;4.90;1.88;;;;;;;;;;5105984;27;40692;-67
2023/08/01 12:46:16;;;;;;;2.50;1.60;;;;;;;;;;5106134;27;42295;-67
2023/08/01 12:48:44;;;;;;;2.60;1.33;;;;;;;;;;5105742;27;42616;-67
2023/08/01 12:51:14;;;;;;;5.07;1.60;;;;;;;;;;5104934;28;40980;-66
2023/08/01 12:53:42;;;;;;;3.15;1.42;;;;;;;;;;5106669;27;42212;-67
2023/08/01 12:56:13;;;;;;;4.00;1.27;;;;;;;;;;5106210;28;41894;-67
2023/08/01 12:58:41;;;;;;;2.88;1.30;;;;;;;;;;5104973;28;40050;-66
2023/08/01 13:01:09;;;;;;;4.47;1.42;;;;;;;;;;5105520;27;42321;-69
2023/08/01 13:03:38;;;;;;;9.88;1.98;;;;;;;;;;5106506;27;41613;-67
2023/08/01 13:06:06;;;;;;;4.78;1.85;;;;;;;;;;5106850;27;42615;-67
2023/08/01 13:08:35;;;;;;;6.45;1.60;;;;;;;;;;5106006;27;42480;-67
2023/08/01 13:11:02;;;;;;;5.53;1.38;;;;;;;;;;5102722;27;40943;-67
2023/08/01 13:13:30;;;;;;;3.03;1.50;;;;;;;;;;5105565;27;41608;-67
2023/08/01 13:15:58;;;;;;;5.40;1.60;;;;;;;;;;5105482;27;42934;-67
2023/08/01 13:18:27;;;;;;;4.18;1.45;;;;;;;;;;5105886;27;40935;-68
2023/08/01 13:20:56;;;;;;;3.45;1.45;;;;;;;;;;5105974;27;41757;-67
2023/08/01 13:23:24;;;;;;;5.82;1.70;;;;;;;;;;5094956;27;43286;-67
2023/08/01 13:25:52;;;;;;;3.42;1.65;;;;;;;;;;5097561;28;41340;-67
2023/08/01 13:28:20;;;;;;;8.93;2.42;;;;;;;;;;5106260;27;41644;-67
2023/08/01 13:30:48;;;;;;;7.82;2.25;;;;;;;;;;5104425;27;42038;-66
2023/08/01 13:33:16;;;;;;;8.02;2.05;;;;;;;;;;5106634;27;42159;-67
2023/08/01 13:35:44;;;;;;;8.73;1.80;;;;;;;;;;5089105;27;42825;-68
2023/08/01 13:38:13;;;;;;;4.43;1.70;;;;;;;;;;5084625;28;42076;-67
2023/08/01 13:40:42;;;;;;;7.05;1.83;;;;;;;;;;5085453;28;41714;-67
2023/08/01 13:43:09;;;;;;;4.47;1.90;;;;;;;;;;5084916;28;43344;-67
2023/08/01 13:45:37;;;;;;;5.35;1.92;;;;;;;;;;5084913;28;42546;-66
2023/08/01 13:48:06;;;;;;;7.32;2.10;;;;;;;;;;5096514;28;41618;-67
2023/08/01 13:50:34;;;;;;;4.43;1.60;;;;;;;;;;5105320;27;41954;-67
2023/08/01 13:53:02;;;;;;;6.70;1.92;;;;;;;;;;5109400;27;42568;-68
2023/08/01 13:55:32;;;;;;;8.57;1.70;;;;;;;;;;5109263;27;42006;-67
2023/08/01 13:58:00;;;;;;;5.63;1.80;;;;;;;;;;5109134;27;40593;-69
2023/08/01 14:00:28;;;;;;;9.98;1.83;;;;;;;;;;5109592;27;42594;-66
2023/08/01 14:02:57;;;;;;;5.65;1.80;;;;;;;;;;5109382;27;42650;-66
2023/08/01 14:05:25;;;;;;;8.20;2.08;;;;;;;;;;5107860;27;41505;-66
2023/08/01 14:07:53;;;;;;;5.75;2.25;;;;;;;;;;5109590;28;41730;-67
2023/08/01 14:10:22;;;;;;;4.75;2.08;;;;;;;;;;5109949;27;41490;-68
2023/08/01 14:12:51;;;;;;;5.55;1.95;;;;;;;;;;5108022;27;41744;-66
2023/08/01 14:15:19;;;;;;;7.00;1.83;;;;;;;;;;5109298;27;43247;-67
2023/08/01 14:17:47;;;;;;;6.03;2.05;;;;;;;;;;5108596;27;43151;-67
2023/08/01 14:20:15;;;;;;;7.43;1.67;;;;;;;;;;5108817;27;42367;-66
2023/08/01 14:22:46;;;;;;;6.82;1.73;;;;;;;;;;5108793;27;41963;-68
2023/08/01 14:25:14;;;;;;;5.72;2.00;;;;;;;;;;5108734;27;41429;-67
2023/08/01 14:27:42;;;;;;;6.60;1.85;;;;;;;;;;5108805;27;42268;-66
2023/08/01 14:30:11;;;;;;;6.07;1.80;;;;;;;;;;5109642;27;41513;-66
2023/08/01 14:32:39;;;;;;;9.15;1.50;;;;;;;;;;5106930;27;42688;-67
2023/08/01 14:35:08;;;;;;;5.03;1.92;;;;;;;;;;5108860;27;41903;-66
2023/08/01 14:37:36;;;;;;;7.40;1.80;;;;;;;;;;5107989;27;40907;-68
2023/08/01 14:40:04;;;;;;;8.52;1.42;;;;;;;;;;5109176;27;42272;-68
2023/08/01 14:42:32;;;;;;;8.90;2.20;;;;;;;;;;5106182;27;41829;-69
2023/08/01 14:45:00;;;;;;;9.05;1.83;;;;;;;;;;5098322;28;40722;-68
2023/08/01 14:47:30;;;;;;;7.25;2.00;;;;;;;;;;5100320;28;41439;-67
2023/08/01 14:49:58;;;;;;;11.30;2.10;;;;;;;;;;5109272;27;42073;-67